Bridgeville, Delaware
Current Conditions -  °F | °C
As of 4:54 PM on Thursday 18 Dec 2014 (Local Time) from KGED Reporting Station
Clear Clear  
Wind Chill: 32°   Ceiling: Unl
Heat Index: 37°   Visibility: 10mi
Dew Point: 22°   Wind: 7mph
Humidity: 54%   Direction: 290°WNW
Pressure: 30.07"   Gusts: NA
Location:  38.74°N, 75.6°W
Report Text: KGED 182154Z AUTO 29006KT 10SM CLR 03/M06 A3007 RMK AO2 SLP182 T00281056
Loading
Personal Weather Stations






























Interactive Weather Map New forecast layout! Learn more

10-Day Weather Forecast

Advertisements
Track Severe Weather on mobile